Time;durP1;ratioP1;P1;durP2;ratioP2;P2;SDS_P1;SDS_P2;PMS_P1;PMS_P2;Temp;Humidity;BMP_temperature;BMP_pressure;BME280_temperature;BME280_humidity;BME280_pressure;Samples;Min_cycle;Max_cycle;Signal;HPM_P1;HPM_P2
2022/08/15 00:01:00;;;;;;;13.47;8.37;;;22.10;99.90;;;;;;5056628;28;20180;-90
2022/08/15 00:03:28;;;;;;;12.73;8.87;;;22.10;99.90;;;;;;5039234;28;20213;-90
2022/08/15 00:06:07;;;;;;;12.23;8.70;;;22.10;99.90;;;;;;5055675;28;20229;-90
2022/08/15 00:08:36;;;;;;;15.50;9.27;;;22.10;99.90;;;;;;5047436;28;20209;-90
2022/08/15 00:11:09;;;;;;;9.60;6.87;;;22.00;99.90;;;;;;5032654;28;20229;-90
2022/08/15 00:13:35;;;;;;;11.27;7.47;;;21.80;99.90;;;;;;5035883;28;20170;-90
2022/08/15 00:16:01;;;;;;;13.20;8.77;;;21.60;99.90;;;;;;5019582;28;20260;-90
2022/08/15 00:18:28;;;;;;;15.00;10.03;;;21.50;99.90;;;;;;5021406;28;20264;-90
2022/08/15 00:20:55;;;;;;;11.33;9.00;;;21.40;99.90;;;;;;5055419;28;20209;-90
2022/08/15 00:23:23;;;;;;;13.83;8.80;;;21.40;99.90;;;;;;5037374;28;20199;-89
2022/08/15 00:25:51;;;;;;;11.63;8.13;;;21.30;99.90;;;;;;5035451;28;20280;-92
2022/08/15 00:28:17;;;;;;;11.00;8.70;;;21.10;99.90;;;;;;5035890;28;20268;-90
2022/08/15 00:30:44;;;;;;;11.97;9.00;;;21.20;99.90;;;;;;5018920;28;20239;-90
2022/08/15 00:33:11;;;;;;;13.77;9.27;;;21.20;99.90;;;;;;5018687;28;20211;-90
2022/08/15 00:35:40;;;;;;;11.13;8.67;;;21.30;99.90;;;;;;5032546;28;20206;-90
2022/08/15 00:38:11;;;;;;;11.70;8.87;;;21.40;99.90;;;;;;5015765;28;20207;-89
2022/08/15 00:43:24;;;;;;;13.63;8.20;;;21.40;99.90;;;;;;5052323;28;20261;-90
2022/08/15 00:45:51;;;;;;;10.80;8.67;;;21.40;99.90;;;;;;5036993;28;20301;-90
2022/08/15 00:51:09;;;;;;;13.87;7.60;;;21.30;99.90;;;;;;5050095;28;20214;-89
2022/08/15 00:53:36;;;;;;;12.67;8.63;;;21.20;99.90;;;;;;5039749;28;20563;-90
2022/08/15 00:56:03;;;;;;;9.90;8.77;;;21.20;99.90;;;;;;5015404;28;20212;-89
2022/08/15 00:58:29;;;;;;;13.87;9.70;;;21.20;99.90;;;;;;5019880;28;20183;-89
2022/08/15 01:00:54;;;;;;;11.23;9.40;;;21.20;99.90;;;;;;4994157;28;20273;-87
2022/08/15 01:03:25;;;;;;;12.83;8.63;;;21.10;99.90;;;;;;4995436;28;20698;-89
2022/08/15 01:05:59;;;;;;;11.90;8.93;;;21.10;99.90;;;;;;5049593;28;20607;-89
2022/08/15 01:08:28;;;;;;;15.03;8.33;;;21.10;99.90;;;;;;5055798;28;20216;-88
2022/08/15 01:10:56;;;;;;;14.30;9.40;;;21.10;99.90;;;;;;5055947;28;20209;-89
2022/08/15 01:13:22;;;;;;;11.53;8.20;;;21.00;99.90;;;;;;5042369;28;20641;-90
2022/08/15 01:15:48;;;;;;;16.27;9.20;;;20.90;99.90;;;;;;5042468;28;20209;-88
2022/08/15 01:18:15;;;;;;;10.63;7.37;;;20.80;99.90;;;;;;5038188;28;20228;-89
2022/08/15 01:20:43;;;;;;;12.67;7.73;;;20.70;99.90;;;;;;5042513;28;20209;-89
2022/08/15 01:23:45;;;;;;;19.00;9.43;;;20.70;99.90;;;;;;5058598;28;20213;-90
2022/08/15 01:26:13;;;;;;;12.37;7.80;;;20.70;99.90;;;;;;5058839;28;20262;-90
2022/08/15 01:28:45;;;;;;;14.30;8.97;;;20.70;99.90;;;;;;5058822;28;20205;-90
2022/08/15 01:31:15;;;;;;;15.23;8.13;;;20.70;99.90;;;;;;5055603;28;20298;-90
2022/08/15 01:33:49;;;;;;;9.87;7.10;;;20.60;99.90;;;;;;5038829;28;20573;-91
2022/08/15 01:36:16;;;;;;;13.90;7.93;;;20.50;99.90;;;;;;5049902;28;20217;-90
2022/08/15 01:38:47;;;;;;;12.03;7.63;;;20.30;99.90;;;;;;5022226;28;20214;-91
2022/08/15 01:41:44;;;;;;;13.60;7.00;;;20.00;99.90;;;;;;5053400;28;20255;-90
2022/08/15 01:44:20;;;;;;;11.07;7.13;;;19.80;99.90;;;;;;5055365;28;20701;-90
2022/08/15 01:47:05;;;;;;;13.73;8.50;;;19.80;99.90;;;;;;5066320;28;20192;-93
2022/08/15 01:49:41;;;;;;;10.53;7.50;;;19.90;99.90;;;;;;5059272;28;20161;-90
2022/08/15 01:52:08;;;;;;;13.87;7.70;;;19.90;99.90;;;;;;5046604;28;20208;-90
2022/08/15 01:54:41;;;;;;;12.53;8.37;;;20.00;99.90;;;;;;5022203;28;20275;-90
2022/08/15 01:57:08;;;;;;;11.47;7.47;;;20.00;99.90;;;;;;5037669;28;20241;-89
2022/08/15 01:59:34;;;;;;;12.77;7.77;;;19.90;99.90;;;;;;5022011;28;20575;-90
2022/08/15 02:02:04;;;;;;;11.57;8.10;;;19.90;99.90;;;;;;5037883;28;20209;-88
2022/08/15 02:04:34;;;;;;;13.43;7.97;;;19.90;99.90;;;;;;5057548;28;20582;-90
2022/08/15 02:07:05;;;;;;;14.37;7.93;;;19.90;99.90;;;;;;5055038;28;20218;-90
2022/08/15 02:09:31;;;;;;;11.03;8.07;;;19.80;99.90;;;;;;5048410;28;20216;-89
2022/08/15 02:11:59;;;;;;;13.60;8.03;;;19.80;99.90;;;;;;5023111;28;20210;-91
2022/08/15 02:14:25;;;;;;;14.43;8.50;;;19.80;99.90;;;;;;5040714;28;20577;-90
2022/08/15 02:16:51;;;;;;;12.20;8.60;;;19.80;99.90;;;;;;5024809;28;20184;-90
2022/08/15 02:19:17;;;;;;;13.43;8.27;;;19.80;99.90;;;;;;5014218;28;20167;-90
2022/08/15 02:21:45;;;;;;;13.33;9.13;;;19.90;99.90;;;;;;5001748;28;20220;-91
2022/08/15 02:24:16;;;;;;;13.63;8.20;;;19.80;99.90;;;;;;5037992;28;20224;-90
2022/08/15 02:26:41;;;;;;;13.20;8.63;;;19.70;99.90;;;;;;5054515;28;20220;-90
2022/08/15 02:29:07;;;;;;;15.20;8.73;;;19.60;99.90;;;;;;5038833;28;20293;-90
2022/08/15 02:31:34;;;;;;;16.83;8.80;;;19.50;99.90;;;;;;5054564;28;20174;-90
2022/08/15 02:34:01;;;;;;;15.50;8.87;;;19.50;99.90;;;;;;5058196;28;20622;-90
2022/08/15 02:36:31;;;;;;;13.13;8.73;;;19.50;99.90;;;;;;5057270;28;20224;-90
2022/08/15 02:38:58;;;;;;;16.00;9.60;;;19.50;99.90;;;;;;5054168;28;20214;-91
2022/08/15 02:41:31;;;;;;;12.33;8.47;;;19.50;99.90;;;;;;5052636;28;20209;-90
2022/08/15 02:43:59;;;;;;;13.73;9.17;;;19.30;99.90;;;;;;5057313;28;20217;-91
2022/08/15 02:46:26;;;;;;;25.13;9.33;;;19.20;99.90;;;;;;5057835;28;20200;-89
2022/08/15 02:48:53;;;;;;;15.60;7.87;;;19.10;99.90;;;;;;5057412;28;20249;-92
2022/08/15 02:51:20;;;;;;;15.70;8.30;;;19.00;99.90;;;;;;5040763;28;20219;-91
2022/08/15 02:53:50;;;;;;;16.37;9.27;;;19.10;99.90;;;;;;5057393;28;20729;-92
2022/08/15 02:56:23;;;;;;;13.70;8.53;;;19.10;99.90;;;;;;5053872;28;20209;-91
2022/08/15 02:58:50;;;;;;;16.17;8.80;;;19.10;99.90;;;;;;5066771;28;20177;-91
2022/08/15 03:01:17;;;;;;;17.33;9.03;;;19.10;99.90;;;;;;5038801;28;20193;-90
2022/08/15 03:03:46;;;;;;;15.10;9.40;;;19.10;99.90;;;;;;5057043;28;20209;-92
2022/08/15 03:06:14;;;;;;;15.70;8.90;;;19.10;99.90;;;;;;5049996;28;20227;-91
2022/08/15 03:08:41;;;;;;;14.87;9.40;;;19.10;99.90;;;;;;5034077;28;20695;-91
2022/08/15 03:11:08;;;;;;;14.50;9.17;;;19.10;99.90;;;;;;5049296;28;20213;-91
2022/08/15 03:13:35;;;;;;;15.80;9.20;;;19.10;99.90;;;;;;5053824;28;20202;-92
2022/08/15 03:16:03;;;;;;;12.40;8.80;;;19.10;99.90;;;;;;5070955;28;20255;-91
2022/08/15 03:18:32;;;;;;;18.57;10.37;;;19.00;99.90;;;;;;5039862;28;20292;-92
2022/08/15 03:20:59;;;;;;;16.87;10.10;;;18.90;99.90;;;;;;5054420;28;20232;-92
2022/08/15 03:23:27;;;;;;;14.40;10.10;;;18.90;99.90;;;;;;5056770;28;20216;-92
2022/08/15 03:25:59;;;;;;;14.50;9.53;;;18.90;99.90;;;;;;5053524;28;20214;-92
2022/08/15 03:28:29;;;;;;;15.53;9.23;;;19.00;99.90;;;;;;5053809;28;20562;-93
2022/08/15 03:30:56;;;;;;;13.13;9.77;;;19.00;99.90;;;;;;5054200;28;20613;-93
2022/08/15 03:33:23;;;;;;;16.77;10.13;;;19.10;99.90;;;;;;5052859;28;20209;-92
2022/08/15 03:35:50;;;;;;;15.57;9.70;;;19.10;99.90;;;;;;5036624;28;20670;-93
2022/08/15 03:38:17;;;;;;;12.53;9.73;;;19.10;99.90;;;;;;5021882;28;20221;-91
2022/08/15 03:40:47;;;;;;;13.63;9.27;;;19.10;99.90;;;;;;5056339;28;20171;-89
2022/08/15 03:43:23;;;;;;;13.10;9.47;;;18.90;99.90;;;;;;5056574;28;20162;-88
2022/08/15 03:45:54;;;;;;;16.37;8.50;;;18.80;99.90;;;;;;5056077;28;20220;-88
2022/08/15 03:48:22;;;;;;;14.93;9.90;;;18.60;99.90;;;;;;5056240;28;20290;-88
2022/08/15 03:50:53;;;;;;;16.77;9.30;;;18.50;99.90;;;;;;5052687;28;20210;-89
2022/08/15 03:53:19;;;;;;;15.97;9.87;;;18.50;99.90;;;;;;5035919;28;20351;-89
2022/08/15 03:55:46;;;;;;;16.83;9.60;;;18.50;99.90;;;;;;5019590;28;20181;-89
2022/08/15 03:58:12;;;;;;;24.33;10.47;;;18.50;99.90;;;;;;5036525;28;20180;-89
2022/08/15 04:00:43;;;;;;;18.93;11.47;;;18.50;99.90;;;;;;5055130;28;20577;-89
2022/08/15 04:03:10;;;;;;;15.13;9.40;;;18.60;99.90;;;;;;5055786;28;20212;-89
2022/08/15 04:05:37;;;;;;;19.00;9.87;;;18.50;99.90;;;;;;5057572;28;20229;-92
2022/08/15 04:08:05;;;;;;;17.17;11.13;;;18.50;99.90;;;;;;5051233;28;20312;-90
2022/08/15 04:10:31;;;;;;;18.70;11.27;;;18.50;99.90;;;;;;5039866;28;20185;-89
2022/08/15 04:12:57;;;;;;;15.80;10.83;;;18.50;99.90;;;;;;5024233;28;20305;-91
2022/08/15 04:15:23;;;;;;;19.77;10.87;;;18.50;99.90;;;;;;5064670;28;20318;-87
2022/08/15 04:17:51;;;;;;;15.87;10.80;;;18.50;99.90;;;;;;5037865;28;20217;-89
2022/08/15 05:25:47;;;;;;;15.37;9.37;;;20.50;99.90;;;;;;517836;26;21330;-82
2022/08/15 05:28:14;;;;;;;19.90;10.33;;;20.90;99.90;;;;;;5005460;28;20570;-84
2022/08/15 05:30:40;;;;;;;16.57;10.60;;;21.20;99.90;;;;;;4991095;28;20226;-84
2022/08/15 06:41:58;;;;;;;14.45;10.07;;;27.60;99.90;;;;;;518617;26;21228;-83
2022/08/15 06:44:26;;;;;;;15.73;10.75;;;26.50;99.90;;;;;;4985999;28;20223;-85
2022/08/15 06:46:55;;;;;;;13.20;9.68;;;27.80;99.90;;;;;;4980844;28;20331;-84
2022/08/15 06:49:22;;;;;;;13.85;9.88;;;28.60;99.90;;;;;;4972369;28;20184;-85
2022/08/15 06:51:48;;;;;;;13.20;9.13;;;28.60;99.90;;;;;;4980039;28;20315;-84
2022/08/15 06:54:27;;;;;;;13.48;9.88;;;28.80;99.90;;;;;;4978068;28;20223;-86
2022/08/15 06:57:09;;;;;;;18.00;9.63;;;29.10;99.90;;;;;;4997616;28;20221;-86
2022/08/15 06:59:42;;;;;;;14.70;9.88;;;30.00;99.90;;;;;;4985063;28;20552;-86
2022/08/15 07:02:16;;;;;;;13.35;9.80;;;30.70;99.90;;;;;;4997904;28;20621;-89
2022/08/15 07:04:44;;;;;;;13.10;9.20;;;32.50;99.90;;;;;;5007399;28;20695;-88
2022/08/15 07:07:16;;;;;;;12.50;8.82;;;34.20;99.90;;;;;;5014688;28;20195;-86
2022/08/15 07:09:55;;;;;;;14.25;9.95;;;34.10;99.90;;;;;;5013604;28;20289;-88
2022/08/15 07:12:24;;;;;;;12.65;8.40;;;33.80;99.90;;;;;;5000901;28;20231;-87
2022/08/15 07:15:00;;;;;;;12.00;8.75;;;33.90;99.90;;;;;;4978849;28;20212;-87
2022/08/15 07:17:33;;;;;;;10.48;7.85;;;34.50;99.90;;;;;;4997946;28;20210;-86
2022/08/15 07:19:59;;;;;;;12.48;8.45;;;33.90;99.90;;;;;;4982716;28;20208;-87
2022/08/15 07:22:25;;;;;;;16.20;8.10;;;32.70;99.90;;;;;;4962739;28;20187;-86
2022/08/15 07:24:54;;;;;;;12.00;8.88;;;32.30;99.90;;;;;;4945603;28;20579;-86
2022/08/15 07:27:33;;;;;;;12.13;8.60;;;32.40;99.90;;;;;;4997298;28;20208;-86
2022/08/15 07:30:14;;;;;;;9.73;7.15;;;33.70;99.90;;;;;;4997295;28;20691;-86
2022/08/15 07:32:54;;;;;;;11.80;7.30;;;34.50;99.90;;;;;;4979535;28;20218;-87
2022/08/15 07:35:27;;;;;;;8.90;6.30;;;36.30;99.90;;;;;;5002842;28;20622;-87
2022/08/15 07:37:58;;;;;;;8.52;6.35;;;36.70;99.90;;;;;;4988684;28;20211;-87
2022/08/15 07:40:27;;;;;;;10.65;6.78;;;36.40;99.90;;;;;;4997228;28;20611;-87
2022/08/15 07:42:53;;;;;;;9.07;7.47;;;35.40;99.90;;;;;;5018936;28;20721;-87
2022/08/15 07:45:30;;;;;;;9.10;6.88;;;34.40;99.90;;;;;;5032540;28;20223;-87
2022/08/15 07:48:03;;;;;;;9.98;7.07;;;35.50;99.90;;;;;;5032699;28;20617;-87
2022/08/15 07:50:37;;;;;;;8.75;7.07;;;35.60;99.90;;;;;;5020859;28;20219;-87
2022/08/15 07:53:20;;;;;;;8.93;7.10;;;34.50;99.90;;;;;;5000117;28;20230;-87
2022/08/15 07:56:12;;;;;;;8.35;6.68;;;33.90;99.90;;;;;;5002391;28;20187;-87
2022/08/15 07:58:39;;;;;;;8.57;6.50;;;33.30;99.90;;;;;;4992538;28;20171;-87
2022/08/15 08:01:08;;;;;;;8.07;6.75;;;33.90;99.90;;;;;;4981854;28;20643;-89
2022/08/15 08:03:38;;;;;;;12.13;6.75;;;35.90;99.90;;;;;;5010701;28;20239;-87
2022/08/15 08:06:22;;;;;;;9.32;6.47;;;37.40;99.90;;;;;;4995534;28;20705;-87
2022/08/15 08:09:30;;;;;;;13.10;6.82;;;38.00;99.80;;;;;;5012542;28;20215;-87
2022/08/15 08:12:23;;;;;;;10.15;7.13;;;36.50;99.90;;;;;;4989392;28;20994;-87
2022/08/15 08:15:03;;;;;;;8.27;6.65;;;33.90;99.90;;;;;;5001595;28;20290;-88
2022/08/15 08:17:34;;;;;;;10.68;7.00;;;32.40;99.90;;;;;;4993099;28;20270;-87
2022/08/15 08:20:20;;;;;;;9.65;7.10;;;32.90;99.90;;;;;;5006362;28;20609;-87
2022/08/15 08:23:21;;;;;;;7.78;6.68;;;33.90;99.90;;;;;;5003290;28;20237;-87
2022/08/15 08:26:07;;;;;;;8.60;6.20;;;34.30;99.90;;;;;;4918039;29;20212;-87
2022/08/15 08:29:20;;;;;;;9.93;7.20;;;34.00;99.90;;;;;;5007106;28;20669;-87
2022/08/15 08:32:07;;;;;;;12.40;6.35;;;34.00;99.90;;;;;;4930886;29;20238;-87
2022/08/15 08:34:56;;;;;;;10.45;6.57;;;33.90;99.90;;;;;;4899384;29;20171;-87
2022/08/15 08:37:37;;;;;;;58.42;11.13;;;34.40;99.90;;;;;;4978913;28;20199;-87
2022/08/15 08:43:22;;;;;;;6.75;5.93;;;35.80;99.90;;;;;;4994480;28;20259;-87
2022/08/15 08:46:28;;;;;;;8.32;6.50;;;36.20;99.90;;;;;;4996078;28;20699;-87
2022/08/15 08:49:32;;;;;;;8.32;6.25;;;36.60;99.90;;;;;;4995724;28;20207;-87
2022/08/15 08:52:15;;;;;;;7.40;6.18;;;34.90;99.90;;;;;;4983702;28;20632;-88
2022/08/15 08:55:02;;;;;;;7.68;6.05;;;34.40;99.90;;;;;;4986339;28;20215;-87
2022/08/15 08:57:37;;;;;;;8.15;5.63;;;35.30;99.90;;;;;;4984311;28;20322;-86
2022/08/15 09:00:23;;;;;;;8.52;6.25;;;35.80;99.90;;;;;;4991334;28;20227;-86
2022/08/15 09:02:52;;;;;;;9.10;5.78;;;36.60;99.80;;;;;;4976188;28;20250;-87
2022/08/15 09:05:24;;;;;;;8.65;5.75;;;36.90;99.40;;;;;;4992211;28;20314;-86
2022/08/15 09:07:56;;;;;;;8.73;6.60;;;35.30;99.90;;;;;;4995255;28;20251;-86
2022/08/15 09:10:34;;;;;;;13.05;7.30;;;32.80;99.90;;;;;;4981123;28;20172;-85
2022/08/15 09:15:55;;;;;;;10.23;6.78;;;31.00;99.90;;;;;;4999765;28;21293;-84
2022/08/15 09:18:44;;;;;;;12.60;7.22;;;31.20;99.90;;;;;;4999157;28;20215;-84
2022/08/15 09:21:11;;;;;;;8.32;7.43;;;31.80;99.90;;;;;;4980111;28;20216;-85
2022/08/15 09:23:39;;;;;;;8.55;6.43;;;32.80;99.90;;;;;;4963466;28;20211;-84
2022/08/15 09:26:14;;;;;;;8.80;6.57;;;32.80;99.90;;;;;;4979725;28;20224;-84
2022/08/15 09:28:43;;;;;;;12.30;7.45;;;33.10;99.90;;;;;;4994376;28;20197;-84
2022/08/15 09:31:18;;;;;;;10.82;7.93;;;32.20;99.90;;;;;;4999677;28;20907;-84
2022/08/15 09:33:49;;;;;;;12.88;8.15;;;31.00;99.90;;;;;;4988579;28;20223;-84
2022/08/15 09:36:30;;;;;;;10.63;7.45;;;30.90;99.90;;;;;;4996867;28;20216;-84
2022/08/15 09:39:33;;;;;;;10.85;7.03;;;31.40;99.90;;;;;;4979470;28;20224;-84
2022/08/15 09:42:29;;;;;;;13.00;7.85;;;32.70;99.90;;;;;;4996307;28;20208;-85
2022/08/15 09:45:36;;;;;;;12.10;7.82;;;33.50;99.90;;;;;;4979035;28;20224;-85
2022/08/15 09:48:17;;;;;;;10.48;8.00;;;35.10;99.90;;;;;;4979254;28;20223;-84
2022/08/15 09:51:23;;;;;;;10.05;6.70;;;36.20;99.90;;;;;;4996152;28;20216;-85
2022/08/15 09:54:06;;;;;;;10.63;6.78;;;37.80;99.90;;;;;;4991528;28;20213;-85
2022/08/15 09:56:37;;;;;;;7.45;6.30;;;38.60;99.40;;;;;;4998261;28;20219;-86
2022/08/15 09:59:02;;;;;;;12.35;6.97;;;38.20;99.90;;;;;;4987608;28;20212;-85
2022/08/15 10:01:30;;;;;;;7.82;6.22;;;39.00;99.10;;;;;;4979627;28;20180;-87
2022/08/15 10:03:59;;;;;;;9.70;7.25;;;37.40;99.90;;;;;;4962757;28;20246;-86
2022/08/15 10:06:46;;;;;;;7.90;6.40;;;37.40;99.90;;;;;;4981857;28;20212;-87
2022/08/15 10:09:30;;;;;;;8.10;6.53;;;38.00;99.90;;;;;;4984937;28;20251;-87
2022/08/15 10:12:08;;;;;;;10.00;6.72;;;38.30;99.80;;;;;;4978345;28;20580;-86
2022/08/15 10:15:02;;;;;;;8.15;7.35;;;37.60;99.90;;;;;;4984646;28;20218;-86
2022/08/15 10:17:37;;;;;;;8.23;7.05;;;37.10;99.90;;;;;;4988547;28;20218;-86
2022/08/15 10:20:14;;;;;;;9.25;7.40;;;35.90;99.90;;;;;;5034732;28;20214;-86
2022/08/15 10:22:48;;;;;;;14.93;8.25;;;35.70;99.90;;;;;;4996658;28;20194;-84
2022/08/15 10:25:17;;;;;;;11.95;9.00;;;35.20;99.90;;;;;;5013758;28;20207;-84
2022/08/15 10:28:19;;;;;;;12.95;9.65;;;34.40;99.90;;;;;;5015288;28;20713;-87
2022/08/15 10:30:58;;;;;;;10.35;8.32;;;34.70;99.90;;;;;;4999187;28;20207;-86
2022/08/15 10:33:33;;;;;;;12.50;8.40;;;35.40;99.90;;;;;;4993686;28;20210;-86
2022/08/15 10:36:23;;;;;;;15.00;9.98;;;35.90;99.90;;;;;;5016650;28;20218;-85
2022/08/15 10:39:16;;;;;;;14.90;11.48;;;35.10;99.90;;;;;;4996269;28;20323;-88
2022/08/15 10:42:09;;;;;;;13.15;10.20;;;33.20;99.90;;;;;;4978000;28;20216;-87
2022/08/15 10:45:11;;;;;;;12.52;9.70;;;33.70;99.90;;;;;;4978062;28;20635;-87
2022/08/15 10:47:52;;;;;;;12.95;11.25;;;33.60;99.90;;;;;;4992861;28;20226;-88
2022/08/15 10:50:25;;;;;;;14.32;11.38;;;34.20;99.90;;;;;;4996960;28;20211;-86
2022/08/15 10:53:07;;;;;;;16.13;10.68;;;34.60;99.90;;;;;;4997219;28;20722;-87
2022/08/15 10:55:38;;;;;;;14.18;10.45;;;32.80;99.90;;;;;;4995294;28;20644;-89
2022/08/15 10:58:23;;;;;;;17.90;10.25;;;31.70;99.90;;;;;;4979063;28;20176;-90
2022/08/15 11:01:09;;;;;;;14.80;9.63;;;31.80;99.90;;;;;;4978309;28;20216;-89
2022/08/15 11:04:02;;;;;;;13.20;9.40;;;31.90;99.90;;;;;;4990921;28;20226;-86
2022/08/15 11:06:29;;;;;;;16.38;10.40;;;32.30;99.90;;;;;;4993175;28;20212;-87
2022/08/15 11:08:57;;;;;;;14.77;10.13;;;32.30;99.90;;;;;;4996973;28;20294;-86
2022/08/15 11:11:30;;;;;;;11.43;8.43;;;32.20;99.90;;;;;;4997243;28;20214;-87
2022/08/15 11:13:59;;;;;;;12.57;8.43;;;31.90;99.90;;;;;;4981343;28;20208;-88
2022/08/15 11:16:41;;;;;;;11.15;8.43;;;31.20;99.90;;;;;;4980201;28;20539;-87
2022/08/15 11:19:25;;;;;;;13.65;9.40;;;30.40;99.90;;;;;;4984226;28;20207;-87
2022/08/15 11:21:55;;;;;;;11.68;8.40;;;30.60;99.90;;;;;;5005563;28;20203;-87
2022/08/15 11:24:33;;;;;;;13.98;8.80;;;30.20;99.90;;;;;;4997056;28;20692;-86
2022/08/15 11:27:14;;;;;;;12.57;8.85;;;30.10;99.90;;;;;;4999655;28;20570;-88
2022/08/15 11:29:40;;;;;;;16.23;9.45;;;30.30;99.90;;;;;;5013911;28;20698;-88
2022/08/15 11:32:06;;;;;;;14.85;9.50;;;30.00;99.90;;;;;;4997174;28;20203;-88
2022/08/15 11:34:38;;;;;;;16.40;10.07;;;29.50;99.90;;;;;;4997048;28;20187;-88
2022/08/15 11:37:29;;;;;;;14.90;9.00;;;29.30;99.90;;;;;;5011670;28;20667;-88
2022/08/15 11:39:58;;;;;;;15.23;10.20;;;29.20;99.90;;;;;;4992588;28;20219;-87
2022/08/15 11:42:27;;;;;;;12.77;9.38;;;28.90;99.90;;;;;;5002679;28;20702;-89
2022/08/15 11:45:00;;;;;;;16.05;10.85;;;28.60;99.90;;;;;;5013581;28;20710;-89
2022/08/15 11:47:31;;;;;;;12.80;9.90;;;28.40;99.90;;;;;;5011686;28;21038;-87
2022/08/15 11:50:21;;;;;;;14.32;9.15;;;28.60;99.90;;;;;;5007832;28;20216;-87
2022/08/15 11:52:50;;;;;;;11.30;8.48;;;29.00;99.90;;;;;;5009486;28;20176;-87
2022/08/15 11:55:16;;;;;;;12.57;9.20;;;28.90;99.90;;;;;;5003485;28;20207;-88
2022/08/15 11:57:52;;;;;;;11.45;8.77;;;28.60;99.90;;;;;;5004524;28;20722;-88
2022/08/15 12:00:45;;;;;;;11.48;7.93;;;28.60;99.90;;;;;;5023795;28;20291;-88
2022/08/15 12:03:20;;;;;;;10.95;8.18;;;28.40;99.90;;;;;;4988596;28;20294;-88
2022/08/15 12:05:47;;;;;;;9.75;7.15;;;28.10;99.90;;;;;;4992890;28;20282;-87
2022/08/15 12:08:20;;;;;;;11.05;6.88;;;27.80;99.90;;;;;;5013593;28;20219;-87
2022/08/15 12:10:46;;;;;;;13.27;7.72;;;27.50;99.90;;;;;;5009432;28;20227;-88
2022/08/15 12:13:16;;;;;;;10.60;7.30;;;27.30;99.90;;;;;;4977740;28;20180;-88
2022/08/15 12:15:44;;;;;;;11.57;9.45;;;27.40;99.90;;;;;;4994332;28;20239;-87
2022/08/15 12:18:20;;;;;;;9.63;8.63;;;27.10;99.90;;;;;;5012534;28;20206;-87
2022/08/15 12:21:08;;;;;;;12.05;9.50;;;27.10;99.90;;;;;;5013631;28;20210;-87
2022/08/15 12:23:43;;;;;;;12.10;7.53;;;26.90;99.90;;;;;;5000598;28;20232;-87
2022/08/15 12:26:12;;;;;;;8.55;6.93;;;26.90;99.90;;;;;;4993811;28;20215;-87
2022/08/15 12:28:40;;;;;;;11.05;7.07;;;26.90;99.90;;;;;;4993686;28;20652;-87
2022/08/15 12:31:20;;;;;;;9.43;7.07;;;27.00;99.90;;;;;;4994362;28;20191;-87
2022/08/15 12:33:47;;;;;;;7.97;6.00;;;27.40;99.90;;;;;;4993002;28;20298;-87
2022/08/15 12:36:13;;;;;;;5.82;5.13;;;27.60;99.90;;;;;;5008092;28;20219;-87
2022/08/15 12:38:39;;;;;;;5.72;5.15;;;28.10;99.90;;;;;;5012415;28;20555;-87
2022/08/15 12:41:09;;;;;;;7.55;5.80;;;28.80;99.90;;;;;;4995537;28;20598;-88
2022/08/15 12:43:36;;;;;;;7.63;6.63;;;28.70;99.90;;;;;;5004922;28;20289;-87
2022/08/15 12:46:03;;;;;;;9.60;6.35;;;28.80;99.90;;;;;;5012969;28;20207;-88
2022/08/15 12:48:33;;;;;;;5.57;5.10;;;29.10;99.90;;;;;;4993115;28;20726;-88
2022/08/15 12:51:01;;;;;;;5.18;4.68;;;28.80;99.90;;;;;;5009210;28;20208;-88
2022/08/15 12:53:26;;;;;;;5.25;4.35;;;28.90;99.90;;;;;;4992802;28;20238;-88
2022/08/15 12:55:52;;;;;;;4.32;3.92;;;29.00;99.90;;;;;;4960457;28;20211;-87
2022/08/15 12:58:19;;;;;;;5.63;3.67;;;28.50;99.90;;;;;;4961238;28;20180;-87
2022/08/15 13:00:47;;;;;;;5.07;3.75;;;28.20;99.90;;;;;;5012047;28;20212;-88
2022/08/15 13:03:19;;;;;;;4.25;3.85;;;27.90;99.90;;;;;;5000676;28;20216;-88
2022/08/15 13:06:26;;;;;;;5.88;3.88;;;27.90;99.90;;;;;;4992513;28;20223;-88
2022/08/15 13:08:51;;;;;;;7.43;3.80;;;27.90;99.90;;;;;;4992783;28;20215;-87
2022/08/15 13:11:18;;;;;;;5.15;3.33;;;27.80;99.90;;;;;;5010412;28;20226;-86
2022/08/15 13:13:44;;;;;;;5.10;3.90;;;27.40;99.90;;;;;;4995788;28;20248;-87
2022/08/15 13:16:10;;;;;;;5.07;3.47;;;27.20;99.90;;;;;;4980350;28;20234;-87
2022/08/15 13:18:37;;;;;;;4.05;3.60;;;27.10;99.90;;;;;;4979440;28;20211;-87
2022/08/15 13:23:52;;;;;;;6.28;4.55;;;26.90;99.90;;;;;;5001592;28;20208;-87
2022/08/15 13:26:20;;;;;;;4.03;3.55;;;26.60;99.90;;;;;;4975886;28;20220;-87
2022/08/15 13:28:48;;;;;;;4.25;3.85;;;26.40;99.90;;;;;;4991936;28;20184;-86
2022/08/15 13:31:18;;;;;;;6.70;3.83;;;26.50;99.90;;;;;;4987754;28;20207;-87
2022/08/15 13:33:46;;;;;;;6.13;4.20;;;26.40;99.90;;;;;;4996502;28;20242;-86
2022/08/15 13:36:16;;;;;;;7.15;4.70;;;26.50;99.90;;;;;;4991602;28;20216;-89
2022/08/15 13:38:46;;;;;;;5.78;4.63;;;26.50;99.90;;;;;;4992091;28;20254;-87
2022/08/15 13:41:17;;;;;;;6.88;4.45;;;26.50;99.90;;;;;;4996622;28;20211;-87
2022/08/15 13:43:46;;;;;;;4.45;3.92;;;26.50;99.90;;;;;;5011994;28;20231;-87
2022/08/15 13:46:14;;;;;;;6.32;4.68;;;26.50;99.90;;;;;;5001109;28;20586;-88
2022/08/15 13:48:45;;;;;;;5.45;4.60;;;26.90;99.90;;;;;;4991809;28;20219;-87
2022/08/15 13:51:29;;;;;;;4.70;4.30;;;27.50;99.90;;;;;;4992156;28;20208;-87
2022/08/15 13:53:56;;;;;;;7.40;5.25;;;27.80;99.90;;;;;;4994775;28;20235;-87
2022/08/15 13:56:22;;;;;;;7.75;5.05;;;27.90;99.90;;;;;;4979033;28;20215;-88
2022/08/15 13:58:48;;;;;;;8.13;4.93;;;28.20;99.90;;;;;;4962854;28;20180;-89
2022/08/15 14:01:19;;;;;;;4.65;3.90;;;28.40;99.90;;;;;;4996966;28;20183;-89
2022/08/15 14:03:45;;;;;;;5.25;4.20;;;28.40;99.90;;;;;;5004049;28;20302;-87
2022/08/15 14:06:12;;;;;;;5.00;4.18;;;28.50;99.90;;;;;;4998658;28;20220;-88
2022/08/15 14:08:42;;;;;;;6.05;4.47;;;28.20;99.90;;;;;;5015148;28;20706;-88
2022/08/15 14:11:09;;;;;;;4.88;4.40;;;28.00;99.90;;;;;;5015226;28;20214;-88
2022/08/15 14:13:35;;;;;;;4.63;3.50;;;27.90;99.90;;;;;;4982989;28;20706;-87
2022/08/15 14:16:01;;;;;;;6.00;4.55;;;27.70;99.90;;;;;;4999190;28;20171;-87
2022/08/15 14:18:28;;;;;;;5.10;4.68;;;27.60;99.90;;;;;;5014677;28;20220;-87
2022/08/15 14:20:55;;;;;;;7.78;4.20;;;27.70;99.90;;;;;;4982253;28;20597;-88
2022/08/15 14:23:21;;;;;;;7.03;4.57;;;27.90;99.90;;;;;;5015723;28;20211;-88
2022/08/15 14:25:47;;;;;;;7.22;5.30;;;27.90;99.90;;;;;;4995123;28;20254;-87
2022/08/15 14:28:13;;;;;;;7.35;5.28;;;27.80;99.90;;;;;;5011453;28;20192;-87
2022/08/15 14:30:39;;;;;;;5.80;5.20;;;28.30;99.90;;;;;;4994572;28;20676;-86
2022/08/15 14:33:08;;;;;;;7.78;4.30;;;28.10;99.90;;;;;;4998231;28;20211;-87
2022/08/15 14:35:35;;;;;;;5.65;4.97;;;28.00;99.90;;;;;;5004137;28;20730;-87
2022/08/15 14:38:02;;;;;;;4.85;4.35;;;27.60;99.90;;;;;;4996485;28;20230;-87
2022/08/15 14:40:33;;;;;;;7.32;4.72;;;27.70;99.90;;;;;;4979389;28;20546;-86
2022/08/15 14:42:59;;;;;;;7.63;6.07;;;27.80;99.90;;;;;;5000388;28;20227;-87
2022/08/15 14:45:28;;;;;;;8.15;5.60;;;27.60;99.90;;;;;;5014139;28;20714;-87
2022/08/15 14:47:54;;;;;;;9.15;5.68;;;27.30;99.90;;;;;;5014287;28;20551;-87
2022/08/15 14:50:22;;;;;;;7.15;5.22;;;27.40;99.90;;;;;;4997878;28;20207;-88
2022/08/15 14:52:48;;;;;;;5.93;5.32;;;27.30;99.90;;;;;;5014117;28;20630;-87
2022/08/15 14:55:15;;;;;;;8.90;5.32;;;27.20;99.90;;;;;;4998209;28;20194;-87
2022/08/15 14:57:40;;;;;;;6.20;5.20;;;27.20;99.90;;;;;;5014472;28;20215;-86
2022/08/15 15:00:11;;;;;;;6.20;5.32;;;27.20;99.90;;;;;;4998280;28;20305;-86
2022/08/15 15:02:42;;;;;;;9.85;5.43;;;27.30;99.90;;;;;;5014049;28;20227;-87
2022/08/15 15:05:10;;;;;;;7.25;5.68;;;27.10;99.90;;;;;;5012183;28;20302;-86
2022/08/15 15:07:37;;;;;;;8.40;5.97;;;26.60;99.90;;;;;;4978719;28;20191;-87
2022/08/15 15:10:08;;;;;;;8.07;5.38;;;26.50;99.90;;;;;;4995443;28;20172;-86
2022/08/15 15:12:34;;;;;;;6.65;4.90;;;26.50;99.90;;;;;;5011508;28;20231;-87
2022/08/15 15:15:00;;;;;;;9.05;5.30;;;26.30;99.90;;;;;;4980969;28;20219;-87
2022/08/15 15:17:27;;;;;;;10.52;5.82;;;26.40;99.90;;;;;;5013943;28;20252;-87
2022/08/15 15:19:55;;;;;;;5.97;4.45;;;26.30;99.90;;;;;;5013426;28;20250;-87
2022/08/15 15:22:22;;;;;;;4.40;4.00;;;26.20;99.90;;;;;;4982069;28;20176;-86
2022/08/15 15:24:48;;;;;;;4.60;3.25;;;26.30;99.90;;;;;;4996008;28;20220;-85
2022/08/15 15:27:15;;;;;;;3.75;3.45;;;26.30;99.90;;;;;;4993667;28;20211;-86
2022/08/15 15:29:41;;;;;;;3.80;3.50;;;26.40;99.90;;;;;;5004561;28;21010;-86
2022/08/15 15:32:07;;;;;;;6.10;3.30;;;26.40;99.90;;;;;;4990032;28;20230;-85
2022/08/15 15:34:33;;;;;;;5.28;3.00;;;26.10;99.90;;;;;;5014581;28;20360;-88
2022/08/15 15:37:00;;;;;;;6.70;4.30;;;26.20;99.90;;;;;;4985042;28;20184;-84